Time;durP1;ratioP1;P1;durP2;ratioP2;P2;SDS_P1;SDS_P2;PMS_P1;PMS_P2;Temp;Humidity;BMP_temperature;BMP_pressure;BME280_temperature;BME280_humidity;BME280_pressure;Samples;Min_cycle;Max_cycle;Signal;HPM_P1;HPM_P2
2023/04/12 00:01:04;;;;;;;4.17;1.83;;;6.50;99.90;;;;;;5003934;28;20177;-75
2023/04/12 00:03:32;;;;;;;6.90;2.30;;;6.60;99.90;;;;;;5000237;28;20332;-73
2023/04/12 00:06:02;;;;;;;5.37;2.30;;;6.50;99.90;;;;;;5000914;28;20212;-74
2023/04/12 00:08:32;;;;;;;2.77;1.70;;;6.50;99.90;;;;;;4999248;28;20213;-74
2023/04/12 00:10:59;;;;;;;5.97;1.63;;;6.50;99.90;;;;;;5002100;28;20231;-75
2023/04/12 00:13:25;;;;;;;3.40;1.70;;;6.50;99.90;;;;;;5000009;28;20221;-75
2023/04/12 00:15:50;;;;;;;4.33;2.13;;;6.50;99.90;;;;;;4998391;28;20178;-73
2023/04/12 00:18:16;;;;;;;4.33;1.90;;;6.50;99.90;;;;;;5002638;28;20260;-74
2023/04/12 00:20:42;;;;;;;6.43;2.10;;;6.50;99.90;;;;;;5000482;28;20210;-75
2023/04/12 00:23:12;;;;;;;3.27;1.90;;;6.50;99.90;;;;;;4999073;28;20592;-75
2023/04/12 00:25:38;;;;;;;6.70;1.93;;;6.50;99.90;;;;;;5000244;28;20566;-75
2023/04/12 00:28:04;;;;;;;4.90;2.17;;;6.50;99.90;;;;;;4998495;28;20209;-75
2023/04/12 00:30:30;;;;;;;3.20;1.87;;;6.40;99.90;;;;;;4998548;28;20602;-73
2023/04/12 00:32:56;;;;;;;2.53;1.97;;;6.40;99.90;;;;;;5000256;28;20217;-75
2023/04/12 00:35:22;;;;;;;3.33;2.33;;;6.40;99.90;;;;;;4997010;28;20205;-75
2023/04/12 00:37:47;;;;;;;3.10;1.80;;;6.30;99.90;;;;;;5015416;28;20902;-75
2023/04/12 00:40:13;;;;;;;4.03;2.07;;;6.40;99.90;;;;;;5002361;28;20264;-74
2023/04/12 00:42:38;;;;;;;5.50;2.33;;;6.30;99.90;;;;;;4997293;28;20652;-75
2023/04/12 00:45:05;;;;;;;5.70;2.47;;;6.20;99.90;;;;;;5002915;28;20217;-75
2023/04/12 00:47:33;;;;;;;2.80;1.87;;;6.20;99.90;;;;;;4998145;28;20213;-74
2023/04/12 00:50:01;;;;;;;10.47;2.23;;;6.30;99.90;;;;;;5002705;28;20766;-75
2023/04/12 00:52:33;;;;;;;4.10;1.90;;;6.30;99.90;;;;;;4995309;28;20217;-74
2023/04/12 00:55:02;;;;;;;5.53;2.20;;;6.30;99.90;;;;;;5008963;28;20184;-73
2023/04/12 00:57:32;;;;;;;4.03;2.03;;;6.30;99.90;;;;;;5017266;28;20213;-75
2023/04/12 00:59:58;;;;;;;6.17;2.20;;;6.30;99.90;;;;;;5000380;28;20209;-74
2023/04/12 01:02:23;;;;;;;4.43;2.17;;;6.20;99.90;;;;;;4999567;28;20209;-75
2023/04/12 01:04:52;;;;;;;5.87;2.17;;;6.20;99.90;;;;;;4999399;28;20225;-75
2023/04/12 01:07:26;;;;;;;2.10;1.80;;;6.10;99.90;;;;;;4996093;28;20247;-75
2023/04/12 01:10:18;;;;;;;4.27;2.00;;;6.20;99.90;;;;;;5000224;28;20212;-73
2023/04/12 01:13:02;;;;;;;5.93;2.77;;;6.10;99.90;;;;;;4989121;28;20217;-75
2023/04/12 01:15:33;;;;;;;5.60;2.00;;;6.10;99.90;;;;;;4999906;28;20224;-75
2023/04/12 01:18:08;;;;;;;6.30;2.00;;;6.20;99.90;;;;;;4999825;28;20213;-75
2023/04/12 01:20:43;;;;;;;4.50;2.50;;;6.10;99.90;;;;;;4998829;28;20743;-74
2023/04/12 01:23:30;;;;;;;4.00;2.00;;;6.00;99.90;;;;;;4997823;28;20208;-74
2023/04/12 01:26:34;;;;;;;3.97;1.93;;;6.10;99.90;;;;;;5000998;28;20265;-75
2023/04/12 01:29:08;;;;;;;5.17;2.60;;;6.00;99.90;;;;;;5001889;28;20204;-75
2023/04/12 01:31:35;;;;;;;4.03;2.33;;;6.10;99.90;;;;;;5003871;28;20208;-73
2023/04/12 01:34:03;;;;;;;5.07;2.03;;;6.20;99.90;;;;;;5002843;28;20197;-75
2023/04/12 01:36:29;;;;;;;5.03;2.17;;;6.10;99.90;;;;;;5002601;28;20223;-74
2023/04/12 01:38:56;;;;;;;7.07;2.33;;;6.10;99.90;;;;;;4998901;28;20206;-75
2023/04/12 01:41:22;;;;;;;3.13;2.10;;;6.00;99.90;;;;;;5003120;28;20220;-75
2023/04/12 01:43:48;;;;;;;4.47;1.77;;;6.00;99.90;;;;;;5001040;28;20799;-74
2023/04/12 01:46:21;;;;;;;4.13;1.80;;;6.00;99.90;;;;;;5003935;28;20279;-74
2023/04/12 01:48:50;;;;;;;4.20;2.20;;;6.00;99.90;;;;;;4998931;28;20243;-74
2023/04/12 01:51:26;;;;;;;2.80;2.03;;;5.90;99.90;;;;;;5004082;28;20205;-75
2023/04/12 01:54:01;;;;;;;3.80;2.10;;;6.00;99.90;;;;;;5002033;28;20977;-75
2023/04/12 01:56:33;;;;;;;4.53;2.40;;;5.90;99.90;;;;;;5003342;28;20215;-74
2023/04/12 01:59:01;;;;;;;6.17;2.80;;;5.90;99.90;;;;;;5004698;28;20213;-74
2023/04/12 02:01:28;;;;;;;5.27;2.00;;;5.90;99.90;;;;;;5003417;28;20290;-74
2023/04/12 02:03:55;;;;;;;5.20;2.27;;;5.80;99.90;;;;;;5008772;28;20238;-72
2023/04/12 02:06:22;;;;;;;5.03;2.47;;;5.80;99.90;;;;;;5018356;28;20205;-73
2023/04/12 02:08:48;;;;;;;5.70;2.20;;;5.80;99.90;;;;;;5003468;28;20205;-74
2023/04/12 02:11:14;;;;;;;6.73;2.60;;;5.80;99.90;;;;;;5001478;28;20542;-75
2023/04/12 02:13:40;;;;;;;4.33;2.10;;;5.80;99.90;;;;;;5002689;28;20217;-74
2023/04/12 02:16:09;;;;;;;6.93;2.60;;;5.80;99.90;;;;;;5001377;28;20745;-75
2023/04/12 02:18:35;;;;;;;3.57;1.97;;;5.80;99.90;;;;;;5004511;28;20174;-75
2023/04/12 02:21:01;;;;;;;6.50;2.50;;;5.80;99.90;;;;;;5002494;28;20217;-74
2023/04/12 02:23:26;;;;;;;5.33;2.23;;;5.70;99.90;;;;;;5004768;28;20205;-74
2023/04/12 02:25:52;;;;;;;3.63;1.93;;;5.60;99.90;;;;;;4999357;28;20241;-74
2023/04/12 02:28:17;;;;;;;5.53;1.83;;;5.60;99.90;;;;;;4987489;28;20691;-74
2023/04/12 02:30:44;;;;;;;5.33;3.40;;;5.50;99.90;;;;;;4996885;28;20180;-75
2023/04/12 02:33:10;;;;;;;4.67;2.50;;;5.50;99.90;;;;;;5004675;28;20698;-74
2023/04/12 02:35:36;;;;;;;4.13;2.53;;;5.50;99.90;;;;;;5001930;28;20301;-73
2023/04/12 02:38:07;;;;;;;4.93;2.70;;;5.60;99.90;;;;;;5003686;28;20284;-74
2023/04/12 02:40:34;;;;;;;4.77;2.40;;;5.60;99.90;;;;;;5002042;28;20690;-74
2023/04/12 02:43:00;;;;;;;3.70;2.30;;;5.50;99.90;;;;;;5002338;28;20685;-74
2023/04/12 02:45:26;;;;;;;5.53;2.90;;;5.50;99.90;;;;;;5001747;28;20212;-74
2023/04/12 02:47:51;;;;;;;7.07;2.87;;;5.40;99.90;;;;;;5002687;28;20221;-74
2023/04/12 02:50:17;;;;;;;4.83;2.57;;;5.40;99.90;;;;;;4999621;28;20208;-74
2023/04/12 02:52:43;;;;;;;5.87;3.10;;;5.40;99.90;;;;;;5001807;28;20212;-74
2023/04/12 02:55:08;;;;;;;5.27;2.70;;;5.50;99.90;;;;;;4999437;28;20610;-74
2023/04/12 02:57:34;;;;;;;5.57;3.13;;;5.50;99.90;;;;;;5007259;23;20228;-77
2023/04/12 03:00:00;;;;;;;6.23;3.13;;;5.40;99.90;;;;;;4992924;28;20205;-78
2023/04/12 03:02:26;;;;;;;8.10;3.03;;;5.40;99.90;;;;;;4989494;28;20680;-78
2023/04/12 03:04:53;;;;;;;5.27;3.23;;;5.40;99.90;;;;;;4995766;28;20794;-77
2023/04/12 03:07:20;;;;;;;5.93;3.00;;;5.30;99.90;;;;;;4969656;28;20677;-78
2023/04/12 03:09:46;;;;;;;6.50;3.93;;;5.30;99.90;;;;;;4966145;28;20187;-76
2023/04/12 03:12:14;;;;;;;3.43;2.60;;;5.30;99.90;;;;;;4976899;28;20245;-79
2023/04/12 03:14:40;;;;;;;9.63;3.83;;;5.20;99.90;;;;;;4968608;28;20214;-75
2023/04/12 03:17:06;;;;;;;6.03;2.57;;;5.30;99.90;;;;;;4962251;28;20217;-78
2023/04/12 03:19:33;;;;;;;6.43;2.60;;;5.20;99.90;;;;;;4977019;28;20209;-76
2023/04/12 03:22:00;;;;;;;5.17;2.70;;;5.20;99.90;;;;;;4968268;28;20186;-77
2023/04/12 03:24:26;;;;;;;6.70;3.50;;;5.20;99.90;;;;;;4960442;28;20210;-78
2023/04/12 03:26:52;;;;;;;5.77;3.10;;;5.30;99.90;;;;;;4968267;28;20209;-78
2023/04/12 03:29:18;;;;;;;6.03;3.00;;;5.30;99.90;;;;;;4977643;28;20202;-75
2023/04/12 03:31:43;;;;;;;4.90;2.87;;;5.30;99.90;;;;;;4970046;28;20212;-78
2023/04/12 03:34:09;;;;;;;5.27;2.73;;;5.30;99.90;;;;;;4967749;28;20186;-79
2023/04/12 03:36:35;;;;;;;6.70;2.53;;;5.20;99.90;;;;;;4987021;28;20198;-77
2023/04/12 03:39:00;;;;;;;7.93;2.50;;;5.20;99.90;;;;;;4969449;28;20253;-75
2023/04/12 03:41:27;;;;;;;6.03;3.03;;;5.10;99.90;;;;;;4964222;28;20302;-79
2023/04/12 03:43:53;;;;;;;7.17;2.40;;;5.10;99.90;;;;;;4966584;28;20214;-79
2023/04/12 03:46:19;;;;;;;6.50;2.30;;;5.10;99.90;;;;;;4963940;28;20209;-79
2023/04/12 03:48:44;;;;;;;3.63;2.20;;;5.10;99.90;;;;;;4958128;28;20198;-79
2023/04/12 03:51:11;;;;;;;3.80;2.70;;;5.10;99.90;;;;;;4974687;28;20249;-80
2023/04/12 03:53:40;;;;;;;4.33;2.40;;;5.20;99.90;;;;;;4968278;28;20763;-80
2023/04/12 03:56:06;;;;;;;6.57;2.93;;;5.10;99.90;;;;;;4964286;28;20233;-77
2023/04/12 03:58:32;;;;;;;5.78;2.72;;;5.20;99.90;;;;;;4967128;28;20454;-75
2023/04/12 04:01:02;;;;;;;3.43;2.40;;;5.20;99.90;;;;;;4963907;28;20213;-79
2023/04/12 04:03:28;;;;;;;6.13;3.17;;;5.20;99.90;;;;;;4972928;28;20428;-77
2023/04/12 04:05:55;;;;;;;5.90;3.10;;;5.30;99.90;;;;;;4973469;28;20211;-77
2023/04/12 04:08:20;;;;;;;7.07;2.90;;;5.30;99.90;;;;;;4968191;28;20206;-78
2023/04/12 04:10:46;;;;;;;5.40;3.00;;;5.20;99.90;;;;;;4968927;28;20221;-78
2023/04/12 04:13:11;;;;;;;5.57;3.37;;;5.20;99.90;;;;;;4971685;28;20194;-79
2023/04/12 04:15:37;;;;;;;8.37;2.87;;;5.20;99.90;;;;;;4971967;28;20205;-74
2023/04/12 04:18:03;;;;;;;5.03;2.80;;;5.20;99.90;;;;;;4969722;28;20429;-76
2023/04/12 04:20:28;;;;;;;6.83;2.87;;;5.30;99.90;;;;;;4969633;28;20743;-76
2023/04/12 04:22:54;;;;;;;6.80;2.63;;;5.30;99.90;;;;;;4968676;28;20221;-77
2023/04/12 04:25:20;;;;;;;5.10;2.90;;;5.20;99.90;;;;;;4968353;28;20209;-76
2023/04/12 04:27:46;;;;;;;5.83;2.97;;;5.30;99.90;;;;;;4968684;28;20197;-78
2023/04/12 04:30:14;;;;;;;5.10;3.17;;;5.30;99.90;;;;;;4964376;28;20213;-76
2023/04/12 04:32:40;;;;;;;5.73;3.03;;;5.30;99.90;;;;;;4964713;28;20209;-75
2023/04/12 04:35:06;;;;;;;5.57;3.07;;;5.30;99.90;;;;;;4965710;28;20210;-77
2023/04/12 04:37:35;;;;;;;5.87;2.90;;;5.40;99.90;;;;;;4958423;28;20222;-77
2023/04/12 04:40:07;;;;;;;4.70;3.50;;;5.40;99.90;;;;;;4972690;28;20548;-77
2023/04/12 04:42:33;;;;;;;6.13;2.80;;;5.40;99.90;;;;;;4969876;28;20301;-76
2023/04/12 04:45:01;;;;;;;6.27;3.00;;;5.40;99.90;;;;;;4970975;28;20605;-76
2023/04/12 04:47:29;;;;;;;7.50;3.40;;;5.80;99.90;;;;;;4975565;28;20315;-77
2023/04/12 04:49:56;;;;;;;5.20;3.10;;;6.20;99.90;;;;;;4979633;28;20693;-77
2023/04/12 04:52:22;;;;;;;6.07;2.63;;;7.10;99.90;;;;;;4978792;28;20554;-78
2023/04/12 04:54:48;;;;;;;5.23;2.70;;;7.90;99.90;;;;;;4977356;28;20665;-78
2023/04/12 04:57:14;;;;;;;8.43;3.60;;;8.20;99.90;;;;;;4976672;28;20311;-77
2023/04/12 04:59:40;;;;;;;9.17;3.23;;;8.70;99.90;;;;;;4973045;28;20586;-75
2023/04/12 05:02:06;;;;;;;8.43;3.30;;;9.20;99.90;;;;;;4974985;28;20216;-75
2023/04/12 05:04:31;;;;;;;6.13;2.87;;;9.40;99.90;;;;;;4971771;28;20218;-78
2023/04/12 05:06:57;;;;;;;5.67;3.33;;;9.70;99.90;;;;;;4969671;28;20207;-78
2023/04/12 05:09:23;;;;;;;5.40;3.20;;;9.80;99.90;;;;;;4966314;28;20697;-75
2023/04/12 05:11:48;;;;;;;4.50;2.70;;;9.90;99.90;;;;;;4967427;28;20227;-79
2023/04/12 05:14:14;;;;;;;5.33;2.80;;;9.70;99.90;;;;;;4968472;28;20210;-77
2023/04/12 05:16:40;;;;;;;6.03;2.63;;;10.10;99.90;;;;;;4975774;28;20269;-75
2023/04/12 05:19:06;;;;;;;8.00;3.33;;;10.80;99.90;;;;;;4966280;28;20166;-78
2023/04/12 05:21:33;;;;;;;6.95;3.88;;;10.70;99.90;;;;;;4963261;28;20178;-78
2023/04/12 05:23:58;;;;;;;6.38;3.40;;;11.40;99.90;;;;;;4971171;28;20767;-79
2023/04/12 05:26:24;;;;;;;3.05;2.67;;;11.80;99.90;;;;;;4983753;28;20240;-76
2023/04/12 05:28:50;;;;;;;7.47;3.40;;;11.70;99.90;;;;;;4977944;28;20217;-78
2023/04/12 05:31:16;;;;;;;5.82;2.72;;;12.20;99.90;;;;;;4979985;28;20209;-77
2023/04/12 05:33:43;;;;;;;4.90;2.80;;;12.90;99.90;;;;;;4974096;28;20179;-78
2023/04/12 05:36:10;;;;;;;5.00;3.22;;;12.70;99.90;;;;;;4971377;28;20210;-76
2023/04/12 05:38:35;;;;;;;4.70;2.92;;;13.80;99.90;;;;;;4965305;28;20658;-78
2023/04/12 05:41:04;;;;;;;4.28;2.88;;;13.50;99.90;;;;;;4975694;28;20241;-78
2023/04/12 05:43:31;;;;;;;5.38;3.35;;;13.20;99.90;;;;;;4971350;28;20765;-79
2023/04/12 05:45:57;;;;;;;7.35;3.40;;;13.60;99.90;;;;;;4970752;28;20245;-77
2023/04/12 05:48:23;;;;;;;4.50;2.22;;;13.70;99.90;;;;;;4970423;28;20298;-79
2023/04/12 05:50:52;;;;;;;4.82;2.67;;;13.60;99.90;;;;;;4965910;28;20211;-80
2023/04/12 05:53:18;;;;;;;7.18;2.45;;;13.50;99.90;;;;;;4972124;28;20209;-78
2023/04/12 05:55:44;;;;;;;5.82;2.65;;;14.10;99.90;;;;;;4971192;28;20214;-77
2023/04/12 05:58:10;;;;;;;6.85;3.00;;;13.10;99.90;;;;;;4972871;28;20266;-76
2023/04/12 06:00:37;;;;;;;4.45;2.70;;;13.80;99.90;;;;;;4968654;28;20267;-76
2023/04/12 06:03:03;;;;;;;7.60;4.25;;;14.30;99.90;;;;;;4971763;28;20214;-78
2023/04/12 06:05:29;;;;;;;4.75;2.83;;;13.50;99.90;;;;;;4980387;28;20221;-76
2023/04/12 06:07:54;;;;;;;5.20;3.25;;;14.10;99.90;;;;;;4967260;28;20211;-75
2023/04/12 06:10:20;;;;;;;7.38;3.22;;;14.80;99.90;;;;;;4977780;28;20174;-77
2023/04/12 06:12:46;;;;;;;5.20;2.80;;;14.50;99.90;;;;;;4974050;28;20184;-77
2023/04/12 06:15:12;;;;;;;5.97;3.25;;;14.70;99.90;;;;;;4988900;28;20206;-78
2023/04/12 06:17:38;;;;;;;5.30;2.58;;;14.80;99.90;;;;;;4975713;28;20210;-77
2023/04/12 06:20:08;;;;;;;5.40;2.90;;;15.70;99.90;;;;;;4978527;28;20217;-77
2023/04/12 06:22:34;;;;;;;6.32;3.50;;;15.10;99.90;;;;;;4974125;28;20230;-77
2023/04/12 06:25:00;;;;;;;4.88;2.97;;;15.00;99.90;;;;;;4979476;28;20238;-76
2023/04/12 06:27:26;;;;;;;7.30;3.17;;;14.70;99.90;;;;;;4973358;28;20206;-77
2023/04/12 06:29:52;;;;;;;6.88;4.05;;;14.90;99.90;;;;;;4970405;28;20266;-77
2023/04/12 06:32:17;;;;;;;5.35;3.22;;;15.40;99.90;;;;;;4971823;28;20211;-78
2023/04/12 06:34:43;;;;;;;4.53;2.90;;;16.70;99.90;;;;;;4974256;28;20214;-78
2023/04/12 06:37:09;;;;;;;5.75;3.17;;;16.50;99.90;;;;;;4967575;28;20206;-77
2023/04/12 06:39:35;;;;;;;4.93;2.97;;;16.70;99.90;;;;;;4965803;28;20897;-77
2023/04/12 06:42:01;;;;;;;6.38;2.95;;;15.80;99.90;;;;;;4975611;28;20210;-75
2023/04/12 06:44:27;;;;;;;6.07;3.13;;;15.20;99.90;;;;;;4981932;28;20213;-78
2023/04/12 06:46:53;;;;;;;6.20;2.97;;;15.20;99.90;;;;;;4979608;28;20224;-77
2023/04/12 06:49:18;;;;;;;6.50;2.97;;;16.00;99.90;;;;;;4981731;28;20174;-77
2023/04/12 06:51:44;;;;;;;5.38;2.80;;;16.20;99.90;;;;;;4977684;28;20546;-77
2023/04/12 06:54:10;;;;;;;5.40;2.90;;;16.60;99.90;;;;;;4979961;28;20301;-76
2023/04/12 06:56:37;;;;;;;3.97;2.53;;;17.00;99.90;;;;;;4975229;28;20218;-77
2023/04/12 06:59:02;;;;;;;5.00;2.60;;;17.00;99.90;;;;;;4975063;28;20219;-78
2023/04/12 07:01:28;;;;;;;7.50;2.97;;;15.80;99.90;;;;;;4974434;28;20437;-78
2023/04/12 07:03:54;;;;;;;6.05;2.85;;;15.90;99.90;;;;;;4975444;28;20483;-77
2023/04/12 07:06:19;;;;;;;4.45;2.60;;;17.10;99.90;;;;;;4976329;28;20244;-75
2023/04/12 07:08:45;;;;;;;5.68;2.50;;;16.50;99.90;;;;;;4966756;28;20245;-78
2023/04/12 07:11:11;;;;;;;3.05;2.20;;;16.90;99.90;;;;;;4970988;28;20680;-80
2023/04/12 07:13:36;;;;;;;4.40;2.00;;;18.00;99.90;;;;;;4972716;28;20225;-77
2023/04/12 07:16:02;;;;;;;5.78;2.67;;;17.30;99.90;;;;;;4973368;28;20203;-74
2023/04/12 07:18:28;;;;;;;4.68;2.22;;;17.80;99.90;;;;;;4965283;28;20206;-77
2023/04/12 07:20:57;;;;;;;5.03;1.98;;;17.90;99.90;;;;;;4970882;28;20227;-77
2023/04/12 07:23:24;;;;;;;7.70;2.50;;;18.00;99.90;;;;;;4982071;28;20210;-76
2023/04/12 07:25:50;;;;;;;3.70;2.15;;;18.10;99.90;;;;;;4976099;28;20218;-78
2023/04/12 07:28:18;;;;;;;7.18;2.05;;;19.60;99.90;;;;;;4974441;28;20580;-78
2023/04/12 07:30:44;;;;;;;3.60;1.77;;;20.10;99.90;;;;;;4977660;28;20186;-77
2023/04/12 07:33:10;;;;;;;4.05;2.10;;;19.10;99.90;;;;;;4979490;28;20206;-79
2023/04/12 07:35:35;;;;;;;5.30;1.95;;;18.70;99.90;;;;;;4975099;28;20211;-77
2023/04/12 07:38:01;;;;;;;3.40;1.90;;;18.90;99.90;;;;;;4977445;28;20214;-76
2023/04/12 07:40:27;;;;;;;4.78;1.95;;;19.60;99.90;;;;;;4973130;28;20210;-75
2023/04/12 07:42:53;;;;;;;3.97;2.08;;;18.90;99.90;;;;;;4969754;28;20297;-77
2023/04/12 07:45:19;;;;;;;3.20;1.90;;;18.50;99.90;;;;;;4975238;28;20233;-74
2023/04/12 07:47:45;;;;;;;4.55;2.20;;;18.30;99.90;;;;;;4967341;28;20713;-78
2023/04/12 07:50:10;;;;;;;5.38;2.17;;;18.60;99.90;;;;;;4973149;28;20214;-77
2023/04/12 07:52:36;;;;;;;3.13;1.90;;;18.60;99.90;;;;;;4970885;28;20207;-77
2023/04/12 07:55:02;;;;;;;4.25;1.90;;;19.10;99.90;;;;;;4971746;28;20206;-76
2023/04/12 07:57:27;;;;;;;6.25;2.10;;;18.30;99.90;;;;;;4973214;28;20229;-77
2023/04/12 07:59:53;;;;;;;7.72;2.15;;;19.00;99.90;;;;;;4976740;28;20217;-75
2023/04/12 08:02:23;;;;;;;13.57;7.50;;;19.10;99.90;;;;;;4982736;28;20201;-77
2023/04/12 08:04:53;;;;;;;5.50;1.85;;;19.30;99.90;;;;;;4981481;28;20606;-72
2023/04/12 08:07:20;;;;;;;5.53;2.00;;;20.10;99.90;;;;;;4973572;28;20218;-78
2023/04/12 08:09:47;;;;;;;4.70;2.50;;;19.70;99.90;;;;;;4976071;28;20178;-79
2023/04/12 08:12:12;;;;;;;4.70;2.80;;;17.20;99.90;;;;;;4976383;28;20240;-78
2023/04/12 08:14:38;;;;;;;4.85;1.73;;;15.90;99.90;;;;;;4972774;28;20231;-77
2023/04/12 08:17:03;;;;;;;6.47;2.08;;;15.30;99.90;;;;;;4972634;28;20362;-74
2023/04/12 08:19:29;;;;;;;5.10;1.70;;;15.30;99.90;;;;;;4974710;28;20217;-76
2023/04/12 08:21:55;;;;;;;5.07;2.03;;;15.30;99.90;;;;;;4968758;28;20574;-77
2023/04/12 08:24:21;;;;;;;6.38;1.35;;;14.50;99.90;;;;;;4970672;28;20206;-79
2023/04/12 08:26:46;;;;;;;2.70;1.58;;;14.60;99.90;;;;;;4966236;28;20755;-75
2023/04/12 08:29:12;;;;;;;5.30;1.92;;;14.60;99.90;;;;;;4967283;28;20222;-77
2023/04/12 08:31:38;;;;;;;6.55;1.30;;;14.90;99.90;;;;;;4969757;28;20211;-77
2023/04/12 08:34:04;;;;;;;3.30;1.30;;;14.60;99.90;;;;;;4971660;28;20589;-77
2023/04/12 08:36:30;;;;;;;3.47;1.30;;;14.80;99.90;;;;;;4972229;28;20198;-78
2023/04/12 08:38:59;;;;;;;4.03;1.35;;;14.80;99.90;;;;;;4978974;28;20241;-78
2023/04/12 08:41:25;;;;;;;4.18;1.63;;;14.60;99.90;;;;;;4980937;28;20210;-77
2023/04/12 08:43:51;;;;;;;4.88;1.27;;;14.30;99.90;;;;;;4976765;28;20222;-77
2023/04/12 08:46:17;;;;;;;6.75;1.40;;;14.10;99.90;;;;;;4978822;28;20242;-77
2023/04/12 08:48:45;;;;;;;4.15;1.35;;;14.40;99.90;;;;;;4972885;28;20206;-77
2023/04/12 08:51:13;;;;;;;5.13;1.48;;;14.40;99.90;;;;;;4981260;28;20230;-77
2023/04/12 08:53:39;;;;;;;2.05;1.10;;;14.50;99.90;;;;;;4969418;28;20202;-77
2023/04/12 08:58:49;;;;;;;4.50;1.20;;;14.10;99.90;;;;;;5027516;28;20227;-75
2023/04/12 09:01:17;;;;;;;3.63;1.08;;;14.00;99.90;;;;;;5030254;28;20184;-75
2023/04/12 09:03:44;;;;;;;6.00;1.23;;;14.40;99.90;;;;;;5029505;28;20199;-75
2023/04/12 09:06:11;;;;;;;2.75;1.08;;;14.00;99.90;;;;;;5029798;28;20211;-76
2023/04/12 09:08:36;;;;;;;6.20;1.35;;;14.00;99.90;;;;;;5022596;28;20695;-75
2023/04/12 09:11:21;;;;;;;5.70;1.70;;;14.00;99.90;;;;;;5025247;28;20258;-74
2023/04/12 09:13:46;;;;;;;5.10;1.17;;;13.90;99.90;;;;;;5022613;28;20352;-76
2023/04/12 09:16:12;;;;;;;4.55;1.35;;;13.80;99.90;;;;;;5025576;28;20172;-75
2023/04/12 09:18:50;;;;;;;2.97;1.33;;;14.00;99.90;;;;;;5030261;28;20203;-76
2023/04/12 09:21:17;;;;;;;1.73;1.30;;;13.80;99.90;;;;;;5043610;28;20303;-76
2023/04/12 09:23:43;;;;;;;3.10;1.15;;;13.90;99.90;;;;;;5029062;28;20294;-74
2023/04/12 09:26:25;;;;;;;3.05;1.10;;;14.20;99.90;;;;;;5020592;28;20644;-74
2023/04/12 09:28:51;;;;;;;5.15;1.50;;;13.90;99.90;;;;;;5028565;28;20220;-75
2023/04/12 09:31:16;;;;;;;4.20;1.40;;;14.20;99.90;;;;;;5027212;28;20180;-74
2023/04/12 09:33:42;;;;;;;3.25;1.50;;;14.10;99.90;;;;;;5026823;28;20221;-75
2023/04/12 09:36:12;;;;;;;3.47;1.58;;;14.10;99.90;;;;;;5025363;28;20212;-75
2023/04/12 09:38:38;;;;;;;5.13;1.70;;;14.10;99.90;;;;;;5022403;28;20204;-76
2023/04/12 09:41:24;;;;;;;5.53;1.60;;;14.30;99.90;;;;;;5021686;28;20266;-74
2023/04/12 09:43:50;;;;;;;3.33;1.60;;;14.30;99.90;;;;;;5023758;28;20307;-76
2023/04/12 09:46:16;;;;;;;3.92;1.60;;;14.20;99.90;;;;;;5037116;28;20271;-74
2023/04/12 09:48:49;;;;;;;2.17;1.27;;;14.40;99.90;;;;;;5019817;28;20656;-74
2023/04/12 09:51:36;;;;;;;5.85;1.70;;;14.60;99.90;;;;;;5022445;28;20757;-76
2023/04/12 09:54:03;;;;;;;4.85;1.58;;;14.30;99.90;;;;;;5041540;28;20230;-74
2023/04/12 09:56:41;;;;;;;4.20;1.77;;;14.20;99.90;;;;;;5032855;28;20304;-74
2023/04/12 09:59:07;;;;;;;8.63;1.98;;;14.00;99.90;;;;;;5032727;28;20216;-76
2023/04/12 10:01:37;;;;;;;3.33;1.40;;;14.30;99.90;;;;;;5032389;28;20208;-76
2023/04/12 10:04:05;;;;;;;5.80;2.08;;;14.60;99.90;;;;;;5030785;28;20196;-74
2023/04/12 10:06:33;;;;;;;3.55;1.67;;;14.70;99.90;;;;;;5032049;28;20211;-75
2023/04/12 10:09:01;;;;;;;4.82;1.75;;;14.40;99.90;;;;;;5030173;28;20219;-77
2023/04/12 10:11:28;;;;;;;3.72;1.73;;;14.40;99.90;;;;;;5029782;28;20676;-76
2023/04/12 10:13:55;;;;;;;6.38;3.72;;;14.30;99.90;;;;;;5028225;28;20243;-76
2023/04/12 10:16:21;;;;;;;1.98;1.13;;;14.40;99.90;;;;;;5028252;28;20196;-76
2023/04/12 10:18:48;;;;;;;3.22;1.20;;;14.20;99.90;;;;;;5027831;28;20228;-76
2023/04/12 10:21:15;;;;;;;3.05;1.70;;;14.30;99.90;;;;;;5030123;28;20639;-75
2023/04/12 10:23:43;;;;;;;5.53;1.98;;;14.70;99.90;;;;;;5025197;28;20215;-74
2023/04/12 10:26:10;;;;;;;3.38;1.52;;;14.70;99.90;;;;;;5023935;28;20537;-75
2023/04/12 10:28:35;;;;;;;4.57;1.70;;;14.50;99.90;;;;;;5029960;28;20204;-76
2023/04/12 10:31:31;;;;;;;4.60;1.40;;;14.40;99.90;;;;;;5029810;28;20259;-76
2023/04/12 10:34:01;;;;;;;6.25;1.58;;;14.20;99.90;;;;;;5024451;28;20216;-77
2023/04/12 10:36:55;;;;;;;4.13;1.25;;;14.30;99.90;;;;;;5027260;28;20221;-76
2023/04/12 10:39:42;;;;;;;4.03;1.52;;;14.20;99.90;;;;;;5031151;28;20640;-75
2023/04/12 10:42:19;;;;;;;1.88;1.13;;;14.20;99.90;;;;;;5032097;28;20586;-75
2023/04/12 10:44:46;;;;;;;4.07;1.52;;;14.30;99.90;;;;;;5031480;28;20223;-77
2023/04/12 10:47:11;;;;;;;5.40;1.67;;;14.20;99.90;;;;;;5028057;28;20213;-75
2023/04/12 10:49:38;;;;;;;4.80;1.63;;;14.20;99.90;;;;;;5029367;28;20204;-74
2023/04/12 10:52:04;;;;;;;1.90;1.25;;;14.40;99.90;;;;;;5027289;28;20229;-73
2023/04/12 10:54:33;;;;;;;3.65;1.40;;;14.40;99.90;;;;;;5030727;28;20699;-76
2023/04/12 10:57:00;;;;;;;5.53;1.90;;;14.40;99.90;;;;;;5025046;28;20247;-76
2023/04/12 10:59:55;;;;;;;6.97;1.90;;;14.30;99.90;;;;;;5026575;28;20228;-75
2023/04/12 11:02:21;;;;;;;6.00;1.88;;;14.30;99.90;;;;;;5024169;28;20209;-75
2023/04/12 11:05:08;;;;;;;3.33;1.20;;;14.20;99.90;;;;;;5025672;28;20732;-76
2023/04/12 11:07:42;;;;;;;5.10;1.67;;;14.30;99.90;;;;;;5025832;28;20216;-76
2023/04/12 11:10:16;;;;;;;4.60;1.48;;;14.20;99.90;;;;;;5025546;28;20177;-75
2023/04/12 11:12:49;;;;;;;5.70;1.48;;;14.30;99.90;;;;;;5031682;28;20183;-74
2023/04/12 11:15:14;;;;;;;5.25;1.50;;;14.50;99.90;;;;;;5032365;28;20205;-77
2023/04/12 11:17:40;;;;;;;3.25;1.80;;;14.60;99.90;;;;;;5031577;28;20689;-75
2023/04/12 11:20:11;;;;;;;3.30;1.40;;;14.70;99.90;;;;;;5032106;28;20207;-75
2023/04/12 11:22:38;;;;;;;4.05;1.73;;;14.70;99.90;;;;;;5029746;28;20226;-75
2023/04/12 11:25:04;;;;;;;3.67;1.60;;;14.80;99.90;;;;;;5027805;28;20205;-76
2023/04/12 11:27:33;;;;;;;4.55;1.60;;;14.80;99.90;;;;;;5021325;28;20230;-75
2023/04/12 11:30:00;;;;;;;4.53;1.77;;;14.60;99.90;;;;;;5026636;28;20411;-75
2023/04/12 11:32:28;;;;;;;6.22;1.70;;;14.60;99.90;;;;;;5030562;28;20786;-76
2023/04/12 11:34:55;;;;;;;5.25;1.70;;;14.80;99.90;;;;;;5029590;28;20289;-76
2023/04/12 11:37:21;;;;;;;3.95;1.40;;;14.40;99.90;;;;;;5027087;28;20254;-76
2023/04/12 11:39:50;;;;;;;5.32;1.40;;;14.50;99.90;;;;;;5029673;28;20180;-75
2023/04/12 11:42:18;;;;;;;3.20;1.58;;;14.80;99.90;;;;;;5025103;28;20215;-75
2023/04/12 11:44:45;;;;;;;6.00;1.42;;;14.90;99.90;;;;;;5027612;28;20216;-75
2023/04/12 11:47:22;;;;;;;6.45;1.98;;;14.80;99.90;;;;;;5020972;28;20278;-75
2023/04/12 11:49:57;;;;;;;5.35;1.50;;;14.80;99.90;;;;;;5027890;28;20217;-76
2023/04/12 11:52:31;;;;;;;3.67;1.33;;;15.00;99.90;;;;;;5031262;28;20259;-75
2023/04/12 11:55:00;;;;;;;3.72;1.55;;;15.00;99.90;;;;;;5031271;28;20184;-76
2023/04/12 11:57:27;;;;;;;2.38;1.23;;;15.00;99.90;;;;;;5029547;28;20271;-76
2023/04/12 11:59:57;;;;;;;8.35;1.65;;;14.80;99.90;;;;;;5029384;28;20208;-76
2023/04/12 12:02:24;;;;;;;3.38;1.30;;;15.00;99.90;;;;;;5029088;28;20714;-77
2023/04/12 12:04:50;;;;;;;5.32;1.50;;;15.30;99.90;;;;;;5028502;28;20212;-75
2023/04/12 12:07:17;;;;;;;3.50;1.48;;;15.10;99.90;;;;;;5029548;28;20209;-75
2023/04/12 12:09:43;;;;;;;5.20;1.23;;;15.20;99.90;;;;;;5029997;28;20230;-76
2023/04/12 12:12:12;;;;;;;6.65;1.20;;;15.10;99.90;;;;;;5023952;28;20852;-74
2023/04/12 12:14:39;;;;;;;6.13;1.40;;;15.30;99.90;;;;;;5029870;28;20200;-77
2023/04/12 12:17:16;;;;;;;3.47;1.27;;;15.30;99.90;;;;;;5025849;28;20623;-77
2023/04/12 12:19:43;;;;;;;2.38;1.10;;;15.40;99.90;;;;;;5026281;28;20211;-74
2023/04/12 12:22:14;;;;;;;2.03;1.13;;;15.30;99.90;;;;;;5023740;28;20168;-74
2023/04/12 12:24:50;;;;;;;3.75;1.17;;;15.20;99.90;;;;;;5027894;28;20184;-80
2023/04/12 12:27:21;;;;;;;4.97;1.60;;;15.30;99.90;;;;;;5020353;28;20315;-76
2023/04/12 12:29:53;;;;;;;2.67;1.08;;;15.50;99.90;;;;;;5030925;28;20208;-77
2023/04/12 12:32:22;;;;;;;2.05;1.30;;;15.50;99.80;;;;;;5029388;28;20204;-77
2023/04/12 12:34:54;;;;;;;6.20;1.63;;;15.40;99.90;;;;;;5028921;28;20204;-77
2023/04/12 12:37:23;;;;;;;3.53;1.05;;;15.50;99.90;;;;;;5028561;28;20207;-76
2023/04/12 12:40:10;;;;;;;5.25;1.40;;;15.60;99.90;;;;;;5029347;28;20650;-76
2023/04/12 12:42:36;;;;;;;4.10;1.40;;;15.70;99.90;;;;;;5023184;28;20204;-77
2023/04/12 12:45:03;;;;;;;2.30;1.27;;;15.80;99.90;;;;;;5026966;28;20299;-76
2023/04/12 12:47:30;;;;;;;3.90;1.40;;;15.80;99.60;;;;;;5025838;28;20721;-77
2023/04/12 12:49:55;;;;;;;2.05;1.15;;;15.70;99.30;;;;;;5019486;28;20695;-78
2023/04/12 12:52:21;;;;;;;2.78;1.15;;;15.40;99.60;;;;;;5029145;28;20176;-76
2023/04/12 12:54:46;;;;;;;4.93;1.40;;;15.30;99.90;;;;;;5028554;28;20613;-74
2023/04/12 12:57:12;;;;;;;3.30;1.20;;;15.40;99.90;;;;;;5019606;28;20257;-74